Pagina principale
METAR-TAF:

METAR-TAF

Aeroporti :

Aeroporto di Lugano-Agno

Lugano, Svizzera

latitudine: 46-00N, longitudine: 008-58E, altezza: 273 m

Osservazione

Il bollettino è stato emesso 27 minuti fa, alle 02:50 UTC
Vento 2 kt da direzioni variabili
Temperature 5°C
Umidità 81%
Pressione 1023 hPa
Visibilità 10 km o più
nessuna nube inferiore a 1500 m e nessun cumulonembo

METAR: LSZA 270250Z AUTO VRB02KT CAVOK 05/02 Q1023

Ora: 04:17 (03:17 UTC)

Previsione

Il bollettino è stato emesso 12 ore e 52 minuti fa, alle 14:25 UTC
Previsione valida dal 26 alle 15 UTC al 26 alle 24 UTC
Vento 4 kt da sud/sud-ovest
Visibilità 10 km o più
nessuna nube inferiore a 1500 m e nessun cumulonembo
Probabilità 40%
dal 26 alle 20 UTC al 26 alle 24 UTC
Vento 10 kt da nord

TAF: LSZA 261425Z 2615/2624 20004KT CAVOK PROB40 2620/2624 01010KT

Osservazioni e previsioni meteorologiche di più di 4000 aeroporti (messaggi METAR e TAF).

Le stazioni disponibili sono rappresentate dai dischi gialli e rossi sulla carta.

Puntare il mouse per vedere il nome della stazione.

Clicca sopra per visualizzare le osservazioni e previsioni meteorologiche.

Per cambiare la mappa : fare clic sui pulsanti verdi con una croce nera per ingrandire, il pulsante verde con un trattino per diminuire, o sulla freccia verde per le mappe adiacenti.


METAR-TAF: